Hodges Gap, North Carolina
Current Conditions -  °F | °C
As of 6:35 PM on Thursday 18 Dec 2014 (Local Time) from KTNB Reporting Station
Broken Clouds Broken Clouds  
Wind Chill: 26°   Ceiling: 4700
Heat Index: 37°   Visibility: 10mi
Dew Point:   Wind: 22mph
Humidity: 29%   Direction: 300°WNW
Pressure: 30.08"   Gusts: 31mph
Location:  36.2085°N, 81.6605°W
Report Text: KTNB 182335Z AUTO 30019G27KT 10SM SCT031 SCT041 BKN047 03/M14 A3008 RMK AO2 T00271139
Loading
Personal Weather Stations






























Interactive Weather Map New forecast layout! Learn more

10-Day Weather Forecast

Advertisements
Track Severe Weather on mobile